sensor_id;sensor_type;location;lat;lon;timestamp;pressure;altitude;pressure_sealevel;temperature;humidity
38912;BME280;28444;48.056;14.408;2023-11-19T00:01:58;97952.38;;;3.33;100.00
38912;BME280;28444;48.056;14.408;2023-11-19T00:04:25;97941.84;;;3.30;100.00
38912;BME280;28444;48.056;14.408;2023-11-19T00:06:51;97930.84;;;3.22;100.00
38912;BME280;28444;48.056;14.408;2023-11-19T00:09:18;97925.72;;;3.19;100.00
38912;BME280;28444;48.056;14.408;2023-11-19T00:11:45;97909.78;;;3.15;100.00
38912;BME280;28444;48.056;14.408;2023-11-19T00:14:20;97908.59;;;3.10;100.00
38912;BME280;28444;48.056;14.408;2023-11-19T00:16:46;97905.34;;;3.18;100.00
38912;BME280;28444;48.056;14.408;2023-11-19T00:19:13;97898.94;;;3.21;100.00
38912;BME280;28444;48.056;14.408;2023-11-19T00:21:39;97891.59;;;3.16;100.00
38912;BME280;28444;48.056;14.408;2023-11-19T00:24:08;97877.16;;;3.07;100.00
38912;BME280;28444;48.056;14.408;2023-11-19T00:26:35;97870.75;;;3.10;100.00
38912;BME280;28444;48.056;14.408;2023-11-19T00:29:01;97860.47;;;3.03;100.00
38912;BME280;28444;48.056;14.408;2023-11-19T00:31:28;97863.63;;;3.07;100.00
38912;BME280;28444;48.056;14.408;2023-11-19T00:33:55;97853.81;;;3.10;100.00
38912;BME280;28444;48.056;14.408;2023-11-19T00:36:22;97850.91;;;3.02;100.00
38912;BME280;28444;48.056;14.408;2023-11-19T00:38:50;97848.66;;;3.06;100.00
38912;BME280;28444;48.056;14.408;2023-11-19T00:41:19;97848.41;;;3.10;100.00
38912;BME280;28444;48.056;14.408;2023-11-19T00:43:46;97849.16;;;3.05;100.00
38912;BME280;28444;48.056;14.408;2023-11-19T00:46:12;97851.38;;;3.06;100.00
38912;BME280;28444;48.056;14.408;2023-11-19T00:48:40;97845.06;;;2.98;100.00
38912;BME280;28444;48.056;14.408;2023-11-19T00:51:07;97839.84;;;3.06;100.00
38912;BME280;28444;48.056;14.408;2023-11-19T00:53:34;97828.97;;;3.11;100.00
38912;BME280;28444;48.056;14.408;2023-11-19T00:56:00;97820.66;;;3.09;100.00
38912;BME280;28444;48.056;14.408;2023-11-19T00:58:27;97826.94;;;3.18;100.00
38912;BME280;28444;48.056;14.408;2023-11-19T01:00:54;97821.50;;;3.23;100.00
38912;BME280;28444;48.056;14.408;2023-11-19T01:03:21;97830.81;;;3.28;100.00
38912;BME280;28444;48.056;14.408;2023-11-19T01:05:48;97831.13;;;3.19;100.00
38912;BME280;28444;48.056;14.408;2023-11-19T01:08:15;97830.09;;;3.22;100.00
38912;BME280;28444;48.056;14.408;2023-11-19T01:10:42;97819.16;;;3.08;100.00
38912;BME280;28444;48.056;14.408;2023-11-19T01:13:09;97815.19;;;3.15;100.00
38912;BME280;28444;48.056;14.408;2023-11-19T01:15:36;97812.91;;;3.19;100.00
38912;BME280;28444;48.056;14.408;2023-11-19T01:18:03;97815.34;;;3.23;100.00
38912;BME280;28444;48.056;14.408;2023-11-19T01:20:31;97816.59;;;3.22;100.00
38912;BME280;28444;48.056;14.408;2023-11-19T01:23:00;97802.19;;;3.13;100.00
38912;BME280;28444;48.056;14.408;2023-11-19T01:25:27;97800.03;;;3.06;100.00
38912;BME280;28444;48.056;14.408;2023-11-19T01:27:54;97800.47;;;3.10;100.00
38912;BME280;28444;48.056;14.408;2023-11-19T01:30:20;97796.94;;;3.21;100.00
38912;BME280;28444;48.056;14.408;2023-11-19T01:32:47;97796.53;;;3.11;100.00
38912;BME280;28444;48.056;14.408;2023-11-19T01:35:13;97785.28;;;3.07;100.00
38912;BME280;28444;48.056;14.408;2023-11-19T01:37:41;97783.56;;;3.04;100.00
38912;BME280;28444;48.056;14.408;2023-11-19T01:40:08;97776.47;;;3.01;100.00
38912;BME280;28444;48.056;14.408;2023-11-19T01:42:38;97782.13;;;3.03;100.00
38912;BME280;28444;48.056;14.408;2023-11-19T01:45:05;97776.16;;;3.10;100.00
38912;BME280;28444;48.056;14.408;2023-11-19T01:47:36;97773.50;;;3.05;100.00
38912;BME280;28444;48.056;14.408;2023-11-19T01:50:06;97772.31;;;3.00;100.00
38912;BME280;28444;48.056;14.408;2023-11-19T01:52:36;97766.25;;;2.94;100.00
38912;BME280;28444;48.056;14.408;2023-11-19T01:55:04;97757.91;;;2.92;100.00
38912;BME280;28444;48.056;14.408;2023-11-19T01:57:32;97758.47;;;2.85;100.00
38912;BME280;28444;48.056;14.408;2023-11-19T01:59:59;97759.81;;;2.97;100.00
38912;BME280;28444;48.056;14.408;2023-11-19T02:02:26;97753.13;;;3.04;100.00
38912;BME280;28444;48.056;14.408;2023-11-19T02:04:53;97741.63;;;2.98;100.00
38912;BME280;28444;48.056;14.408;2023-11-19T02:07:20;97738.44;;;2.99;100.00
38912;BME280;28444;48.056;14.408;2023-11-19T02:09:47;97741.13;;;2.99;100.00
38912;BME280;28444;48.056;14.408;2023-11-19T02:12:13;97723.75;;;2.95;100.00
38912;BME280;28444;48.056;14.408;2023-11-19T02:14:41;97730.63;;;2.96;100.00
38912;BME280;28444;48.056;14.408;2023-11-19T02:17:27;97732.03;;;3.02;100.00
38912;BME280;28444;48.056;14.408;2023-11-19T02:19:54;97730.09;;;2.97;100.00
38912;BME280;28444;48.056;14.408;2023-11-19T02:22:21;97726.66;;;2.97;100.00
38912;BME280;28444;48.056;14.408;2023-11-19T02:24:51;97724.25;;;2.93;100.00
38912;BME280;28444;48.056;14.408;2023-11-19T02:28:09;97714.28;;;3.07;100.00
38912;BME280;28444;48.056;14.408;2023-11-19T02:30:11;97709.44;;;3.00;100.00
38912;BME280;28444;48.056;14.408;2023-11-19T02:32:42;97714.22;;;2.88;100.00
38912;BME280;28444;48.056;14.408;2023-11-19T02:35:08;97714.97;;;2.88;100.00
38912;BME280;28444;48.056;14.408;2023-11-19T02:37:35;97707.81;;;2.91;100.00
38912;BME280;28444;48.056;14.408;2023-11-19T02:40:02;97709.31;;;2.86;100.00
38912;BME280;28444;48.056;14.408;2023-11-19T02:42:30;97706.91;;;2.83;100.00
38912;BME280;28444;48.056;14.408;2023-11-19T02:44:57;97697.66;;;2.97;100.00
38912;BME280;28444;48.056;14.408;2023-11-19T02:47:24;97696.06;;;2.88;100.00
38912;BME280;28444;48.056;14.408;2023-11-19T02:49:51;97700.50;;;2.86;100.00
38912;BME280;28444;48.056;14.408;2023-11-19T02:52:19;97699.75;;;2.85;100.00
38912;BME280;28444;48.056;14.408;2023-11-19T02:54:46;97697.91;;;2.75;100.00
38912;BME280;28444;48.056;14.408;2023-11-19T02:57:12;97695.16;;;2.80;100.00
38912;BME280;28444;48.056;14.408;2023-11-19T02:59:48;97687.25;;;2.82;100.00
38912;BME280;28444;48.056;14.408;2023-11-19T03:02:15;97674.84;;;2.74;100.00
38912;BME280;28444;48.056;14.408;2023-11-19T03:04:44;97684.19;;;2.73;100.00
38912;BME280;28444;48.056;14.408;2023-11-19T03:07:12;97679.34;;;2.65;100.00
38912;BME280;28444;48.056;14.408;2023-11-19T03:09:40;97682.25;;;2.68;100.00
38912;BME280;28444;48.056;14.408;2023-11-19T03:12:07;97674.16;;;2.68;100.00
38912;BME280;28444;48.056;14.408;2023-11-19T03:14:34;97669.25;;;2.66;100.00
38912;BME280;28444;48.056;14.408;2023-11-19T03:17:03;97669.13;;;2.53;100.00
38912;BME280;28444;48.056;14.408;2023-11-19T03:19:31;97673.78;;;2.52;100.00
38912;BME280;28444;48.056;14.408;2023-11-19T03:21:58;97672.09;;;2.49;100.00
38912;BME280;28444;48.056;14.408;2023-11-19T03:24:26;97675.06;;;2.46;100.00
38912;BME280;28444;48.056;14.408;2023-11-19T03:26:52;97667.59;;;2.57;100.00
38912;BME280;28444;48.056;14.408;2023-11-19T03:29:19;97675.81;;;2.76;100.00
38912;BME280;28444;48.056;14.408;2023-11-19T03:31:46;97673.44;;;2.92;100.00
38912;BME280;28444;48.056;14.408;2023-11-19T03:34:12;97671.47;;;2.92;100.00
38912;BME280;28444;48.056;14.408;2023-11-19T03:36:39;97677.25;;;3.02;100.00
38912;BME280;28444;48.056;14.408;2023-11-19T03:39:06;97664.25;;;3.00;100.00
38912;BME280;28444;48.056;14.408;2023-11-19T03:41:33;97664.25;;;3.00;100.00
38912;BME280;28444;48.056;14.408;2023-11-19T03:44:02;97654.22;;;2.95;100.00
38912;BME280;28444;48.056;14.408;2023-11-19T03:46:29;97650.84;;;3.13;100.00
38912;BME280;28444;48.056;14.408;2023-11-19T03:48:56;97651.34;;;3.12;100.00
38912;BME280;28444;48.056;14.408;2023-11-19T03:51:23;97650.69;;;3.06;100.00
38912;BME280;28444;48.056;14.408;2023-11-19T03:53:50;97648.94;;;2.84;100.00
38912;BME280;28444;48.056;14.408;2023-11-19T03:56:16;97639.72;;;2.98;100.00
38912;BME280;28444;48.056;14.408;2023-11-19T03:58:43;97630.56;;;3.01;100.00
38912;BME280;28444;48.056;14.408;2023-11-19T04:01:13;97626.94;;;2.99;100.00
38912;BME280;28444;48.056;14.408;2023-11-19T04:03:40;97619.16;;;2.89;100.00
38912;BME280;28444;48.056;14.408;2023-11-19T04:06:10;97620.41;;;2.88;100.00
38912;BME280;28444;48.056;14.408;2023-11-19T04:08:37;97611.13;;;2.84;100.00
38912;BME280;28444;48.056;14.408;2023-11-19T04:11:04;97601.25;;;2.86;100.00
38912;BME280;28444;48.056;14.408;2023-11-19T04:13:31;97596.66;;;2.81;100.00
38912;BME280;28444;48.056;14.408;2023-11-19T04:15:58;97577.09;;;2.75;100.00
38912;BME280;28444;48.056;14.408;2023-11-19T04:18:25;97574.91;;;2.74;100.00
38912;BME280;28444;48.056;14.408;2023-11-19T04:20:52;97571.09;;;2.82;100.00
38912;BME280;28444;48.056;14.408;2023-11-19T04:23:18;97564.94;;;2.63;100.00
38912;BME280;28444;48.056;14.408;2023-11-19T04:25:45;97568.06;;;2.73;100.00
38912;BME280;28444;48.056;14.408;2023-11-19T04:28:12;97571.69;;;2.75;100.00
38912;BME280;28444;48.056;14.408;2023-11-19T04:30:39;97575.06;;;2.81;100.00
38912;BME280;28444;48.056;14.408;2023-11-19T04:33:05;97569.91;;;2.83;100.00
38912;BME280;28444;48.056;14.408;2023-11-19T04:35:32;97566.06;;;2.73;100.00
38912;BME280;28444;48.056;14.408;2023-11-19T04:37:58;97561.53;;;2.62;100.00
38912;BME280;28444;48.056;14.408;2023-11-19T04:40:25;97566.13;;;2.68;100.00
38912;BME280;28444;48.056;14.408;2023-11-19T04:42:52;97564.22;;;2.62;100.00
38912;BME280;28444;48.056;14.408;2023-11-19T04:45:19;97559.44;;;2.50;100.00
38912;BME280;28444;48.056;14.408;2023-11-19T04:47:46;97567.97;;;2.54;100.00
38912;BME280;28444;48.056;14.408;2023-11-19T04:50:13;97572.66;;;2.53;100.00
38912;BME280;28444;48.056;14.408;2023-11-19T04:52:39;97570.75;;;2.48;100.00
38912;BME280;28444;48.056;14.408;2023-11-19T04:55:07;97581.97;;;2.58;100.00
38912;BME280;28444;48.056;14.408;2023-11-19T04:57:34;97572.31;;;2.38;100.00
38912;BME280;28444;48.056;14.408;2023-11-19T05:00:00;97590.88;;;2.23;100.00
38912;BME280;28444;48.056;14.408;2023-11-19T05:02:27;97587.66;;;2.24;100.00
38912;BME280;28444;48.056;14.408;2023-11-19T05:04:54;97582.94;;;2.30;100.00
38912;BME280;28444;48.056;14.408;2023-11-19T05:07:21;97578.25;;;2.36;100.00
38912;BME280;28444;48.056;14.408;2023-11-19T05:09:48;97574.06;;;2.35;100.00
38912;BME280;28444;48.056;14.408;2023-11-19T05:12:15;97581.88;;;2.39;100.00
38912;BME280;28444;48.056;14.408;2023-11-19T05:14:41;97578.63;;;2.46;100.00
38912;BME280;28444;48.056;14.408;2023-11-19T05:17:15;97583.81;;;2.44;100.00
38912;BME280;28444;48.056;14.408;2023-11-19T05:19:42;97577.63;;;2.49;100.00
38912;BME280;28444;48.056;14.408;2023-11-19T05:22:08;97571.66;;;2.56;100.00
38912;BME280;28444;48.056;14.408;2023-11-19T05:24:35;97573.91;;;2.52;100.00
38912;BME280;28444;48.056;14.408;2023-11-19T05:27:02;97578.22;;;2.61;100.00
38912;BME280;28444;48.056;14.408;2023-11-19T05:29:29;97584.88;;;2.60;100.00
38912;BME280;28444;48.056;14.408;2023-11-19T05:31:56;97584.00;;;2.71;100.00
38912;BME280;28444;48.056;14.408;2023-11-19T05:34:22;97580.63;;;2.89;100.00
38912;BME280;28444;48.056;14.408;2023-11-19T05:36:49;97579.94;;;2.83;100.00
38912;BME280;28444;48.056;14.408;2023-11-19T05:39:16;97575.25;;;2.64;100.00
38912;BME280;28444;48.056;14.408;2023-11-19T05:41:46;97576.72;;;2.65;100.00
38912;BME280;28444;48.056;14.408;2023-11-19T05:44:12;97580.16;;;2.66;100.00
38912;BME280;28444;48.056;14.408;2023-11-19T05:46:39;97591.00;;;2.60;100.00
38912;BME280;28444;48.056;14.408;2023-11-19T05:49:09;97587.53;;;2.65;100.00
38912;BME280;28444;48.056;14.408;2023-11-19T05:51:39;97600.25;;;2.65;100.00
38912;BME280;28444;48.056;14.408;2023-11-19T05:54:07;97599.09;;;2.60;100.00
38912;BME280;28444;48.056;14.408;2023-11-19T05:56:34;97591.44;;;2.64;100.00
38912;BME280;28444;48.056;14.408;2023-11-19T05:59:01;97599.34;;;2.62;100.00
38912;BME280;28444;48.056;14.408;2023-11-19T06:01:29;97601.31;;;2.62;100.00
38912;BME280;28444;48.056;14.408;2023-11-19T06:03:56;97600.56;;;2.61;100.00
38912;BME280;28444;48.056;14.408;2023-11-19T06:06:23;97605.50;;;2.57;100.00
38912;BME280;28444;48.056;14.408;2023-11-19T06:08:50;97596.69;;;2.57;100.00
38912;BME280;28444;48.056;14.408;2023-11-19T06:11:17;97593.03;;;2.54;100.00
38912;BME280;28444;48.056;14.408;2023-11-19T06:13:46;97578.06;;;2.53;100.00
38912;BME280;28444;48.056;14.408;2023-11-19T06:16:18;97577.72;;;2.62;100.00
38912;BME280;28444;48.056;14.408;2023-11-19T06:18:44;97577.59;;;2.74;100.00
38912;BME280;28444;48.056;14.408;2023-11-19T06:21:12;97577.81;;;2.76;100.00
38912;BME280;28444;48.056;14.408;2023-11-19T06:23:39;97580.63;;;2.89;100.00
38912;BME280;28444;48.056;14.408;2023-11-19T06:26:05;97585.06;;;2.86;100.00
38912;BME280;28444;48.056;14.408;2023-11-19T06:28:32;97578.16;;;2.91;100.00
38912;BME280;28444;48.056;14.408;2023-11-19T06:30:59;97572.59;;;3.02;100.00
38912;BME280;28444;48.056;14.408;2023-11-19T06:33:26;97567.19;;;3.02;100.00
38912;BME280;28444;48.056;14.408;2023-11-19T06:35:53;97565.56;;;2.94;100.00
38912;BME280;28444;48.056;14.408;2023-11-19T06:38:21;97562.88;;;2.94;100.00
38912;BME280;28444;48.056;14.408;2023-11-19T06:40:47;97557.19;;;2.97;100.00
38912;BME280;28444;48.056;14.408;2023-11-19T06:43:19;97563.31;;;2.98;100.00
38912;BME280;28444;48.056;14.408;2023-11-19T06:45:45;97547.78;;;3.04;100.00
38912;BME280;28444;48.056;14.408;2023-11-19T06:48:12;97544.09;;;3.01;100.00
38912;BME280;28444;48.056;14.408;2023-11-19T06:50:39;97546.31;;;3.03;100.00
38912;BME280;28444;48.056;14.408;2023-11-19T06:53:05;97539.22;;;3.00;100.00
38912;BME280;28444;48.056;14.408;2023-11-19T06:55:36;97535.28;;;3.01;100.00
38912;BME280;28444;48.056;14.408;2023-11-19T06:58:03;97529.97;;;2.95;100.00
38912;BME280;28444;48.056;14.408;2023-11-19T07:00:30;97518.00;;;2.91;100.00
38912;BME280;28444;48.056;14.408;2023-11-19T07:02:59;97528.34;;;2.86;100.00
38912;BME280;28444;48.056;14.408;2023-11-19T07:05:26;97529.66;;;2.99;100.00
38912;BME280;28444;48.056;14.408;2023-11-19T07:07:53;97530.81;;;2.84;100.00
38912;BME280;28444;48.056;14.408;2023-11-19T07:10:21;97538.78;;;2.96;100.00
38912;BME280;28444;48.056;14.408;2023-11-19T07:12:47;97543.81;;;3.05;100.00
38912;BME280;28444;48.056;14.408;2023-11-19T07:15:16;97546.81;;;3.01;100.00
38912;BME280;28444;48.056;14.408;2023-11-19T07:17:44;97538.34;;;3.10;100.00
38912;BME280;28444;48.056;14.408;2023-11-19T07:20:12;97539.47;;;3.02;100.00
38912;BME280;28444;48.056;14.408;2023-11-19T07:22:40;97545.44;;;3.13;100.00
38912;BME280;28444;48.056;14.408;2023-11-19T07:25:21;97548.94;;;3.08;100.00
38912;BME280;28444;48.056;14.408;2023-11-19T07:27:47;97542.44;;;2.98;100.00
38912;BME280;28444;48.056;14.408;2023-11-19T07:30:14;97551.94;;;3.05;100.00
38912;BME280;28444;48.056;14.408;2023-11-19T07:32:41;97545.66;;;2.97;100.00
38912;BME280;28444;48.056;14.408;2023-11-19T07:35:07;97534.56;;;3.00;100.00
38912;BME280;28444;48.056;14.408;2023-11-19T07:37:34;97531.25;;;3.07;100.00
38912;BME280;28444;48.056;14.408;2023-11-19T07:40:01;97528.84;;;3.04;100.00
38912;BME280;28444;48.056;14.408;2023-11-19T07:42:27;97532.13;;;3.16;100.00
38912;BME280;28444;48.056;14.408;2023-11-19T07:44:55;97524.09;;;3.29;100.00
38912;BME280;28444;48.056;14.408;2023-11-19T07:47:23;97521.19;;;3.27;100.00
38912;BME280;28444;48.056;14.408;2023-11-19T07:49:50;97531.31;;;3.40;100.00
38912;BME280;28444;48.056;14.408;2023-11-19T07:52:17;97532.69;;;3.46;100.00
38912;BME280;28444;48.056;14.408;2023-11-19T07:54:47;97526.28;;;3.49;100.00
38912;BME280;28444;48.056;14.408;2023-11-19T07:57:14;97534.88;;;3.48;100.00
38912;BME280;28444;48.056;14.408;2023-11-19T07:59:40;97530.00;;;3.46;100.00
38912;BME280;28444;48.056;14.408;2023-11-19T08:02:07;97534.50;;;3.57;100.00
38912;BME280;28444;48.056;14.408;2023-11-19T08:04:34;97534.81;;;3.53;100.00
38912;BME280;28444;48.056;14.408;2023-11-19T08:07:01;97538.47;;;3.56;100.00
38912;BME280;28444;48.056;14.408;2023-11-19T08:09:28;97538.13;;;3.46;100.00
38912;BME280;28444;48.056;14.408;2023-11-19T08:11:54;97541.59;;;3.41;100.00
38912;BME280;28444;48.056;14.408;2023-11-19T08:14:23;97547.47;;;3.26;100.00
38912;BME280;28444;48.056;14.408;2023-11-19T08:16:50;97556.16;;;3.19;100.00
38912;BME280;28444;48.056;14.408;2023-11-19T08:19:17;97551.19;;;3.04;100.00
38912;BME280;28444;48.056;14.408;2023-11-19T08:21:43;97549.88;;;3.11;100.00
38912;BME280;28444;48.056;14.408;2023-11-19T08:24:10;97570.88;;;3.24;100.00
38912;BME280;28444;48.056;14.408;2023-11-19T08:26:37;97550.84;;;3.32;100.00
38912;BME280;28444;48.056;14.408;2023-11-19T08:29:03;97558.28;;;3.45;100.00
38912;BME280;28444;48.056;14.408;2023-11-19T08:31:30;97551.94;;;3.43;100.00
38912;BME280;28444;48.056;14.408;2023-11-19T08:33:57;97542.34;;;3.42;100.00
38912;BME280;28444;48.056;14.408;2023-11-19T08:36:23;97526.88;;;3.42;100.00
38912;BME280;28444;48.056;14.408;2023-11-19T08:38:50;97523.34;;;3.47;100.00
38912;BME280;28444;48.056;14.408;2023-11-19T08:41:18;97528.03;;;3.47;100.00
38912;BME280;28444;48.056;14.408;2023-11-19T08:43:45;97524.06;;;3.48;100.00
38912;BME280;28444;48.056;14.408;2023-11-19T08:46:12;97525.38;;;3.60;100.00
38912;BME280;28444;48.056;14.408;2023-11-19T08:48:39;97532.66;;;3.65;100.00
38912;BME280;28444;48.056;14.408;2023-11-19T08:51:06;97528.56;;;3.58;100.00
38912;BME280;28444;48.056;14.408;2023-11-19T08:53:33;97517.38;;;3.68;100.00
38912;BME280;28444;48.056;14.408;2023-11-19T08:56:00;97528.09;;;3.73;100.00
38912;BME280;28444;48.056;14.408;2023-11-19T08:58:28;97518.84;;;3.69;100.00
38912;BME280;28444;48.056;14.408;2023-11-19T09:00:55;97515.19;;;3.66;100.00
38912;BME280;28444;48.056;14.408;2023-11-19T09:03:22;97507.06;;;3.66;100.00
38912;BME280;28444;48.056;14.408;2023-11-19T09:05:49;97515.53;;;3.76;100.00
38912;BME280;28444;48.056;14.408;2023-11-19T09:08:16;97505.44;;;3.76;100.00
38912;BME280;28444;48.056;14.408;2023-11-19T09:10:43;97499.91;;;3.69;100.00
38912;BME280;28444;48.056;14.408;2023-11-19T09:13:09;97499.63;;;3.85;100.00
38912;BME280;28444;48.056;14.408;2023-11-19T09:15:36;97505.97;;;3.88;100.00
38912;BME280;28444;48.056;14.408;2023-11-19T09:18:02;97506.81;;;3.83;100.00
38912;BME280;28444;48.056;14.408;2023-11-19T09:20:30;97499.41;;;3.83;100.00
38912;BME280;28444;48.056;14.408;2023-11-19T09:23:05;97491.41;;;3.78;100.00
38912;BME280;28444;48.056;14.408;2023-11-19T09:25:32;97489.84;;;3.82;100.00
38912;BME280;28444;48.056;14.408;2023-11-19T09:28:02;97492.22;;;3.73;100.00
38912;BME280;28444;48.056;14.408;2023-11-19T09:30:28;97502.06;;;3.70;100.00
38912;BME280;28444;48.056;14.408;2023-11-19T09:32:55;97494.72;;;3.71;100.00
38912;BME280;28444;48.056;14.408;2023-11-19T09:35:22;97490.53;;;3.70;100.00
38912;BME280;28444;48.056;14.408;2023-11-19T09:37:48;97487.44;;;3.79;100.00
38912;BME280;28444;48.056;14.408;2023-11-19T09:40:15;97486.31;;;3.88;100.00
38912;BME280;28444;48.056;14.408;2023-11-19T09:42:45;97488.50;;;4.02;100.00
38912;BME280;28444;48.056;14.408;2023-11-19T09:45:16;97482.28;;;4.21;100.00
38912;BME280;28444;48.056;14.408;2023-11-19T09:47:44;97483.94;;;4.37;100.00
38912;BME280;28444;48.056;14.408;2023-11-19T09:50:19;97477.28;;;4.38;100.00
38912;BME280;28444;48.056;14.408;2023-11-19T09:52:47;97490.00;;;4.30;100.00
38912;BME280;28444;48.056;14.408;2023-11-19T09:55:23;97484.16;;;4.39;100.00
38912;BME280;28444;48.056;14.408;2023-11-19T09:57:50;97479.03;;;4.35;100.00
38912;BME280;28444;48.056;14.408;2023-11-19T10:00:19;97471.88;;;4.38;100.00
38912;BME280;28444;48.056;14.408;2023-11-19T10:02:48;97473.63;;;4.49;100.00
38912;BME280;28444;48.056;14.408;2023-11-19T10:05:16;97479.75;;;4.49;100.00
38912;BME280;28444;48.056;14.408;2023-11-19T10:07:43;97472.50;;;4.31;100.00
38912;BME280;28444;48.056;14.408;2023-11-19T10:10:12;97478.97;;;4.15;100.00
38912;BME280;28444;48.056;14.408;2023-11-19T10:12:41;97467.06;;;4.31;100.00
38912;BME280;28444;48.056;14.408;2023-11-19T10:15:24;97474.16;;;4.34;100.00
38912;BME280;28444;48.056;14.408;2023-11-19T10:17:57;97463.22;;;4.26;100.00
38912;BME280;28444;48.056;14.408;2023-11-19T10:20:24;97464.78;;;4.35;100.00
38912;BME280;28444;48.056;14.408;2023-11-19T10:22:54;97459.59;;;4.37;100.00
38912;BME280;28444;48.056;14.408;2023-11-19T10:25:26;97454.03;;;4.43;100.00
38912;BME280;28444;48.056;14.408;2023-11-19T10:27:54;97451.03;;;4.33;100.00
38912;BME280;28444;48.056;14.408;2023-11-19T10:30:25;97445.31;;;4.23;100.00
38912;BME280;28444;48.056;14.408;2023-11-19T10:33:12;97443.84;;;4.35;100.00
38912;BME280;28444;48.056;14.408;2023-11-19T10:35:53;97440.31;;;4.41;100.00
38912;BME280;28444;48.056;14.408;2023-11-19T10:38:24;97433.88;;;4.30;100.00
38912;BME280;28444;48.056;14.408;2023-11-19T10:40:52;97436.03;;;4.45;100.00
38912;BME280;28444;48.056;14.408;2023-11-19T10:43:19;97431.97;;;4.39;100.00
38912;BME280;28444;48.056;14.408;2023-11-19T10:45:46;97437.19;;;4.37;100.00
38912;BME280;28444;48.056;14.408;2023-11-19T10:48:12;97431.66;;;4.55;100.00
38912;BME280;28444;48.056;14.408;2023-11-19T10:50:41;97433.25;;;4.72;100.00
38912;BME280;28444;48.056;14.408;2023-11-19T10:53:10;97429.50;;;4.75;100.00
38912;BME280;28444;48.056;14.408;2023-11-19T10:55:39;97425.75;;;4.78;100.00
38912;BME280;28444;48.056;14.408;2023-11-19T10:58:07;97432.22;;;4.75;100.00
38912;BME280;28444;48.056;14.408;2023-11-19T11:03:19;97415.38;;;4.90;100.00
38912;BME280;28444;48.056;14.408;2023-11-19T11:05:47;97413.81;;;4.94;100.00
38912;BME280;28444;48.056;14.408;2023-11-19T11:08:15;97421.16;;;5.07;100.00
38912;BME280;28444;48.056;14.408;2023-11-19T11:10:53;97415.41;;;5.11;100.00
38912;BME280;28444;48.056;14.408;2023-11-19T11:13:24;97424.81;;;5.10;100.00
38912;BME280;28444;48.056;14.408;2023-11-19T11:15:52;97423.69;;;5.05;100.00
38912;BME280;28444;48.056;14.408;2023-11-19T11:18:21;97420.88;;;4.97;100.00
38912;BME280;28444;48.056;14.408;2023-11-19T11:20:49;97401.25;;;5.04;100.00
38912;BME280;28444;48.056;14.408;2023-11-19T11:26:42;97413.44;;;5.11;100.00
38912;BME280;28444;48.056;14.408;2023-11-19T11:31:45;97404.91;;;5.07;100.00
38912;BME280;28444;48.056;14.408;2023-11-19T11:34:26;97408.16;;;5.05;100.00
38912;BME280;28444;48.056;14.408;2023-11-19T11:39:34;97417.50;;;5.04;100.00
38912;BME280;28444;48.056;14.408;2023-11-19T11:42:39;97417.34;;;5.02;100.00
38912;BME280;28444;48.056;14.408;2023-11-19T11:50:11;97388.19;;;4.95;100.00
38912;BME280;28444;48.056;14.408;2023-11-19T11:55:28;97368.81;;;5.12;100.00
38912;BME280;28444;48.056;14.408;2023-11-19T11:57:55;97368.66;;;5.18;100.00
38912;BME280;28444;48.056;14.408;2023-11-19T12:00:26;97359.69;;;5.23;100.00
38912;BME280;28444;48.056;14.408;2023-11-19T12:02:57;97373.03;;;5.42;100.00
38912;BME280;28444;48.056;14.408;2023-11-19T12:05:23;97378.41;;;5.34;100.00
38912;BME280;28444;48.056;14.408;2023-11-19T12:08:01;97375.41;;;5.45;100.00
38912;BME280;28444;48.056;14.408;2023-11-19T12:10:29;97373.84;;;5.58;100.00
38912;BME280;28444;48.056;14.408;2023-11-19T12:12:59;97373.56;;;5.69;100.00
38912;BME280;28444;48.056;14.408;2023-11-19T12:15:27;97376.91;;;5.83;100.00
38912;BME280;28444;48.056;14.408;2023-11-19T12:17:55;97368.97;;;5.85;100.00
38912;BME280;28444;48.056;14.408;2023-11-19T12:20:23;97367.72;;;5.86;100.00
38912;BME280;28444;48.056;14.408;2023-11-19T12:22:53;97378.00;;;5.87;100.00
38912;BME280;28444;48.056;14.408;2023-11-19T12:25:20;97363.72;;;5.87;100.00
38912;BME280;28444;48.056;14.408;2023-11-19T12:27:50;97368.56;;;5.80;100.00
38912;BME280;28444;48.056;14.408;2023-11-19T12:30:24;97362.75;;;5.76;100.00
38912;BME280;28444;48.056;14.408;2023-11-19T12:32:52;97364.75;;;5.76;100.00
38912;BME280;28444;48.056;14.408;2023-11-19T12:35:23;97361.16;;;5.81;100.00
38912;BME280;28444;48.056;14.408;2023-11-19T12:37:51;97362.53;;;5.95;100.00
38912;BME280;28444;48.056;14.408;2023-11-19T12:40:22;97368.81;;;5.90;100.00
38912;BME280;28444;48.056;14.408;2023-11-19T12:42:51;97369.34;;;5.89;100.00
38912;BME280;28444;48.056;14.408;2023-11-19T12:45:18;97356.19;;;5.93;100.00
38912;BME280;28444;48.056;14.408;2023-11-19T12:47:46;97367.25;;;6.02;100.00
38912;BME280;28444;48.056;14.408;2023-11-19T12:50:15;97351.38;;;6.07;100.00
38912;BME280;28444;48.056;14.408;2023-11-19T12:52:42;97360.97;;;6.08;100.00
38912;BME280;28444;48.056;14.408;2023-11-19T12:55:25;97353.69;;;6.02;100.00
38912;BME280;28444;48.056;14.408;2023-11-19T12:57:56;97353.31;;;5.98;100.00
38912;BME280;28444;48.056;14.408;2023-11-19T13:00:26;97361.66;;;6.00;100.00
38912;BME280;28444;48.056;14.408;2023-11-19T13:02:54;97358.63;;;6.12;100.00
38912;BME280;28444;48.056;14.408;2023-11-19T13:05:27;97355.91;;;6.12;100.00
38912;BME280;28444;48.056;14.408;2023-11-19T13:10:26;97354.91;;;5.94;100.00
38912;BME280;28444;48.056;14.408;2023-11-19T13:13:03;97360.75;;;6.06;100.00
38912;BME280;28444;48.056;14.408;2023-11-19T13:15:32;97364.78;;;6.12;100.00
38912;BME280;28444;48.056;14.408;2023-11-19T13:18:00;97352.72;;;6.21;100.00